createdAt,value
2023-04-10T00:00:53.412Z,0.20
2023-04-10T00:03:23.870Z,0.20
2023-04-10T00:05:55.300Z,0.20
2023-04-10T00:08:51.024Z,0.20
2023-04-10T00:11:20.878Z,0.30
2023-04-10T00:13:49.272Z,0.20
2023-04-10T00:16:24.688Z,0.20
2023-04-10T00:19:01.569Z,0.20
2023-04-10T00:21:29.557Z,0.20
2023-04-10T00:23:57.445Z,0.20
2023-04-10T00:26:26.894Z,0.20
2023-04-10T00:28:55.547Z,0.20
2023-04-10T00:31:23.721Z,0.20
2023-04-10T00:33:54.239Z,0.27
2023-04-10T00:36:23.686Z,0.20
2023-04-10T00:38:51.639Z,0.20
2023-04-10T00:41:20.065Z,0.20
2023-04-10T00:43:48.256Z,0.20
2023-04-10T00:46:16.694Z,0.20
2023-04-10T00:48:50.340Z,0.20
2023-04-10T00:51:19.399Z,0.20
2023-04-10T00:53:51.131Z,0.20
2023-04-10T00:56:20.882Z,0.23
2023-04-10T00:58:48.969Z,0.20
2023-04-10T01:01:17.931Z,0.20
2023-04-10T01:03:46.743Z,0.20
2023-04-10T01:06:28.877Z,0.20
2023-04-10T01:09:06.543Z,0.20
2023-04-10T01:11:46.530Z,0.20
2023-04-10T01:14:24.457Z,0.20
2023-04-10T01:16:59.071Z,0.20
2023-04-10T01:19:39.176Z,0.20
2023-04-10T01:22:11.791Z,0.20
2023-04-10T01:24:57.634Z,0.20
2023-04-10T01:27:42.676Z,0.20
2023-04-10T01:30:22.181Z,0.20
2023-04-10T01:33:14.966Z,0.30
2023-04-10T01:35:50.893Z,0.20
2023-04-10T01:38:21.750Z,0.20
2023-04-10T01:40:52.724Z,0.20
2023-04-10T01:43:22.111Z,0.27
2023-04-10T01:45:53.072Z,0.20
2023-04-10T01:48:21.774Z,0.20
2023-04-10T01:50:50.222Z,0.20
2023-04-10T01:53:19.141Z,0.20
2023-04-10T01:55:47.610Z,0.27
2023-04-10T01:58:16.767Z,0.20
2023-04-10T02:00:45.240Z,0.20
2023-04-10T02:03:14.988Z,0.20
2023-04-10T02:05:53.418Z,0.20
2023-04-10T02:08:27.812Z,0.20
2023-04-10T02:11:03.623Z,0.20
2023-04-10T02:13:35.017Z,0.20
2023-04-10T02:16:07.911Z,0.20
2023-04-10T02:18:38.985Z,0.20
2023-04-10T02:21:08.959Z,0.20
2023-04-10T02:23:37.782Z,0.10
2023-04-10T02:26:11.352Z,0.20
2023-04-10T02:28:40.439Z,0.20
2023-04-10T02:31:08.857Z,0.20
2023-04-10T02:33:38.592Z,0.27
2023-04-10T02:36:07.509Z,0.20
2023-04-10T02:38:35.462Z,0.20
2023-04-10T02:41:03.485Z,0.27
2023-04-10T02:43:31.834Z,0.20
2023-04-10T02:46:00.750Z,0.30
2023-04-10T02:48:28.706Z,0.20
2023-04-10T02:51:03.961Z,0.20
2023-04-10T02:53:31.962Z,0.20
2023-04-10T02:55:59.858Z,0.20
2023-04-10T02:58:31.673Z,0.20
2023-04-10T03:00:59.814Z,0.20
2023-04-10T03:03:28.308Z,0.20
2023-04-10T03:05:56.547Z,0.20
2023-04-10T03:08:26.529Z,0.23
2023-04-10T03:10:54.474Z,0.20
2023-04-10T03:13:23.552Z,0.20
2023-04-10T03:15:54.641Z,0.20
2023-04-10T03:18:24.505Z,0.20
2023-04-10T03:20:52.404Z,0.20
2023-04-10T03:23:20.682Z,0.20
2023-04-10T03:25:54.122Z,0.20
2023-04-10T03:28:24.700Z,0.20
2023-04-10T03:30:53.125Z,0.20
2023-04-10T03:33:21.601Z,0.20
2023-04-10T03:35:49.642Z,0.10
2023-04-10T03:38:17.687Z,0.20
2023-04-10T03:40:46.083Z,0.20
2023-04-10T03:43:15.794Z,0.10
2023-04-10T03:45:46.351Z,0.20
2023-04-10T03:48:14.620Z,0.20
2023-04-10T03:50:42.568Z,0.20
2023-04-10T03:53:10.851Z,0.20
2023-04-10T03:55:42.316Z,0.20
2023-04-10T03:58:12.315Z,0.20
2023-04-10T04:00:41.785Z,0.20
2023-04-10T04:03:09.913Z,0.20
2023-04-10T04:05:38.802Z,0.20
2023-04-10T04:08:07.040Z,0.20
2023-04-10T04:10:35.012Z,0.20
2023-04-10T04:13:02.919Z,0.20
2023-04-10T04:15:31.030Z,0.20
2023-04-10T04:18:01.655Z,0.20
2023-04-10T04:20:30.238Z,0.20
2023-04-10T04:22:58.181Z,0.20
2023-04-10T04:25:26.134Z,0.20
2023-04-10T04:27:54.212Z,0.20
2023-04-10T04:30:22.134Z,0.20
2023-04-10T04:32:50.116Z,0.20
2023-04-10T04:35:21.423Z,0.20
2023-04-10T04:37:49.379Z,0.20
2023-04-10T04:40:17.410Z,0.20
2023-04-10T04:42:45.390Z,0.20
2023-04-10T04:45:14.288Z,0.20
2023-04-10T04:47:42.205Z,0.30
2023-04-10T04:50:11.376Z,0.30
2023-04-10T04:52:40.650Z,0.20
2023-04-10T04:55:09.636Z,0.20
2023-04-10T04:57:38.157Z,0.20
2023-04-10T05:00:07.678Z,0.20
2023-04-10T05:02:36.294Z,0.20
2023-04-10T05:05:04.494Z,0.20
2023-04-10T05:07:33.087Z,0.20
2023-04-10T05:10:05.332Z,0.20
2023-04-10T05:12:33.333Z,0.20
2023-04-10T05:15:01.548Z,0.30
2023-04-10T05:17:29.530Z,0.30
2023-04-10T05:19:57.671Z,0.20
2023-04-10T05:22:26.849Z,0.20
2023-04-10T05:24:55.467Z,0.20
2023-04-10T05:27:26.312Z,0.30
2023-04-10T05:29:54.626Z,0.20
2023-04-10T05:32:22.588Z,0.20
2023-04-10T05:34:50.893Z,0.20
2023-04-10T05:37:18.862Z,0.30
2023-04-10T05:39:46.827Z,0.30
2023-04-10T05:42:15.006Z,0.30
2023-04-10T05:44:46.033Z,0.30
2023-04-10T05:47:14.121Z,0.20
2023-04-10T05:49:42.068Z,0.20
2023-04-10T05:52:10.158Z,0.30
2023-04-10T05:54:38.193Z,0.30
2023-04-10T05:57:06.432Z,0.20
2023-04-10T05:59:34.497Z,0.30
2023-04-10T06:02:03.858Z,0.20
2023-04-10T06:04:32.069Z,0.20
2023-04-10T06:07:01.275Z,0.30
2023-04-10T06:09:29.373Z,0.20
2023-04-10T06:11:57.916Z,0.30
2023-04-10T06:14:25.851Z,0.20
2023-04-10T06:16:53.757Z,0.20
2023-04-10T06:19:26.068Z,0.20
2023-04-10T06:21:54.595Z,0.30
2023-04-10T06:24:22.705Z,0.30
2023-04-10T06:26:50.784Z,0.23
2023-04-10T06:29:18.899Z,0.20
2023-04-10T06:31:46.852Z,0.30
2023-04-10T06:34:15.038Z,0.20
2023-04-10T06:36:44.315Z,0.20
2023-04-10T06:39:12.363Z,0.30
2023-04-10T06:41:40.379Z,0.30
2023-04-10T06:44:08.217Z,0.30
2023-04-10T06:46:36.329Z,0.30
2023-04-10T06:49:04.507Z,0.30
2023-04-10T06:51:32.586Z,0.20
2023-04-10T06:54:01.886Z,0.30
2023-04-10T06:56:29.821Z,0.20
2023-04-10T06:58:57.808Z,0.20
2023-04-10T07:01:26.608Z,0.20
2023-04-10T07:03:54.829Z,0.20
2023-04-10T07:06:22.664Z,0.20
2023-04-10T07:08:51.046Z,0.20
2023-04-10T07:11:20.670Z,0.20
2023-04-10T07:13:48.831Z,0.20
2023-04-10T07:16:17.065Z,0.20
2023-04-10T07:18:46.308Z,0.20
2023-04-10T07:21:15.850Z,0.30
2023-04-10T07:23:43.706Z,0.30
2023-04-10T07:26:11.762Z,0.30
2023-04-10T07:28:41.140Z,0.40
2023-04-10T07:31:10.672Z,0.43
2023-04-10T07:33:38.989Z,0.47
2023-04-10T07:36:07.674Z,0.30
2023-04-10T07:38:35.717Z,0.50
2023-04-10T07:41:03.606Z,0.40
2023-04-10T07:43:32.260Z,0.60
2023-04-10T07:46:04.730Z,0.50
2023-04-10T07:48:32.748Z,0.50
2023-04-10T07:51:01.052Z,0.50
2023-04-10T07:53:29.085Z,0.50
2023-04-10T07:55:57.116Z,0.50
2023-04-10T07:58:24.974Z,0.60
2023-04-10T08:00:52.833Z,0.60
2023-04-10T08:03:23.128Z,0.60
2023-04-10T08:05:51.697Z,0.60
2023-04-10T08:08:19.882Z,0.60
2023-04-10T08:10:48.705Z,0.50
2023-04-10T08:13:16.695Z,0.50
2023-04-10T08:15:44.724Z,0.60
2023-04-10T08:18:12.685Z,0.50
2023-04-10T08:20:41.901Z,0.60
2023-04-10T08:25:40.802Z,0.60
2023-04-10T08:28:08.642Z,0.60
2023-04-10T08:30:36.575Z,0.70
2023-04-10T08:33:04.665Z,0.60
2023-04-10T08:35:32.801Z,0.60
2023-04-10T08:38:12.260Z,0.60
2023-04-10T08:40:41.169Z,0.70
2023-04-10T08:43:09.055Z,0.60
2023-04-10T08:45:36.908Z,0.60
2023-04-10T08:48:08.155Z,0.60
2023-04-10T08:50:39.354Z,0.60
2023-04-10T08:53:14.564Z,0.70
2023-04-10T08:55:43.370Z,0.60
2023-04-10T08:58:13.720Z,0.60
2023-04-10T09:00:41.747Z,0.70
2023-04-10T09:03:12.058Z,0.65
2023-04-10T09:05:40.310Z,0.70
2023-04-10T09:08:11.318Z,0.60
2023-04-10T09:10:39.575Z,0.70
2023-04-10T09:13:09.385Z,0.60
2023-04-10T09:16:01.928Z,0.60
2023-04-10T09:18:45.757Z,0.60
2023-04-10T09:21:16.491Z,0.70
2023-04-10T09:23:46.841Z,0.60
2023-04-10T09:26:25.480Z,0.60
2023-04-10T09:29:05.987Z,0.60
2023-04-10T09:31:35.701Z,0.40
2023-04-10T09:34:12.370Z,0.30
2023-04-10T09:36:42.418Z,0.40
2023-04-10T09:39:13.287Z,0.30
2023-04-10T09:41:51.745Z,0.30
2023-04-10T09:44:29.229Z,0.30
2023-04-10T09:46:57.290Z,0.30
2023-04-10T09:49:25.178Z,0.30
2023-04-10T09:51:53.296Z,0.30
2023-04-10T09:54:37.920Z,0.30
2023-04-10T09:57:08.396Z,0.30
2023-04-10T09:59:41.856Z,0.30
2023-04-10T10:02:11.240Z,0.30
2023-04-10T10:04:42.967Z,0.30
2023-04-10T10:07:11.199Z,0.30
2023-04-10T10:09:42.636Z,0.30
2023-04-10T10:12:11.967Z,0.30
2023-04-10T10:14:51.154Z,0.40
2023-04-10T10:17:21.488Z,0.30
2023-04-10T10:19:58.226Z,0.30
2023-04-10T10:22:28.996Z,0.32
2023-04-10T10:25:02.453Z,0.30
2023-04-10T10:27:33.008Z,0.30
2023-04-10T10:30:08.462Z,0.30
2023-04-10T10:32:47.115Z,0.30
2023-04-10T10:35:16.036Z,0.30
2023-04-10T10:37:46.032Z,0.30
2023-04-10T10:40:21.238Z,0.30
2023-04-10T10:42:57.580Z,0.30
2023-04-10T10:45:36.056Z,0.30
2023-04-10T10:48:04.171Z,0.30
2023-04-10T10:50:54.564Z,0.28
2023-04-10T10:53:37.486Z,0.20
2023-04-10T10:56:38.050Z,0.30
2023-04-10T10:59:06.149Z,0.30
2023-04-10T11:01:34.286Z,0.30
2023-04-10T11:04:06.849Z,0.30
2023-04-10T11:06:52.416Z,0.30
2023-04-10T11:09:49.274Z,0.20
2023-04-10T11:12:21.294Z,0.20
2023-04-10T11:14:59.581Z,0.38
2023-04-10T11:17:48.987Z,0.30
2023-04-10T11:20:17.089Z,0.22
2023-04-10T11:23:09.748Z,0.30
2023-04-10T11:25:52.079Z,0.30
2023-04-10T11:28:40.118Z,0.20
2023-04-10T11:31:22.752Z,0.30
2023-04-10T11:34:02.357Z,0.20
2023-04-10T11:36:32.173Z,0.30
2023-04-10T11:39:02.506Z,0.20
2023-04-10T11:41:32.827Z,0.30
2023-04-10T11:44:04.062Z,0.20
2023-04-10T11:46:33.047Z,0.30
2023-04-10T11:49:02.400Z,0.25
2023-04-10T11:51:31.701Z,0.30
2023-04-10T11:54:08.148Z,0.20
2023-04-10T11:56:36.714Z,0.30
2023-04-10T11:59:10.936Z,0.20
2023-04-10T12:01:42.518Z,0.30
2023-04-10T12:04:18.432Z,0.30
2023-04-10T12:06:47.047Z,0.30
2023-04-10T12:09:16.485Z,0.30
2023-04-10T12:11:52.353Z,0.30
2023-04-10T12:14:22.878Z,0.30
2023-04-10T12:16:51.729Z,0.30
2023-04-10T12:19:20.837Z,0.30
2023-04-10T12:21:49.534Z,0.30
2023-04-10T12:24:45.035Z,0.30
2023-04-10T12:27:19.490Z,0.30
2023-04-10T12:29:50.298Z,0.30
2023-04-10T12:32:19.208Z,0.30
2023-04-10T12:34:51.931Z,0.30
2023-04-10T12:37:21.500Z,0.30
2023-04-10T12:39:49.941Z,0.30
2023-04-10T12:42:20.867Z,0.30
2023-04-10T12:44:55.170Z,0.20
2023-04-10T12:47:24.120Z,0.30
2023-04-10T12:50:08.419Z,0.30
2023-04-10T12:52:37.058Z,0.30
2023-04-10T12:55:15.994Z,0.30
2023-04-10T12:57:46.072Z,0.30
2023-04-10T13:00:19.518Z,0.30
2023-04-10T13:02:49.605Z,0.30
2023-04-10T13:05:17.722Z,0.30
2023-04-10T13:07:45.720Z,0.30
2023-04-10T13:10:13.605Z,0.30
2023-04-10T13:12:42.688Z,0.30
2023-04-10T13:15:12.004Z,0.30
2023-04-10T13:17:42.182Z,0.30
2023-04-10T13:20:11.346Z,0.30
2023-04-10T13:22:39.252Z,0.30
2023-04-10T13:25:08.071Z,0.30
2023-04-10T13:27:36.066Z,0.30
2023-04-10T13:30:04.055Z,0.30
2023-04-10T13:32:32.296Z,0.30
2023-04-10T13:35:02.485Z,0.30
2023-04-10T13:37:30.719Z,0.30
2023-04-10T13:39:58.661Z,0.32
2023-04-10T13:42:26.572Z,0.30
2023-04-10T13:44:54.446Z,0.30
2023-04-10T13:47:22.374Z,0.30
2023-04-10T13:49:50.468Z,0.20
2023-04-10T13:52:19.822Z,0.30
2023-04-10T13:54:47.754Z,0.30
2023-04-10T13:57:15.706Z,0.30
2023-04-10T13:59:43.649Z,0.32
2023-04-10T14:02:11.733Z,0.30
2023-04-10T14:04:39.862Z,0.20
2023-04-10T14:07:07.835Z,0.30
2023-04-10T14:09:37.151Z,0.30
2023-04-10T14:12:05.417Z,0.20
2023-04-10T14:14:33.446Z,0.30
2023-04-10T14:17:02.967Z,0.30
2023-04-10T14:19:31.083Z,0.30
2023-04-10T14:21:59.023Z,0.30
2023-04-10T14:24:26.831Z,0.30
2023-04-10T14:26:58.531Z,0.30
2023-04-10T14:29:37.280Z,0.20
2023-04-10T14:32:07.647Z,0.30
2023-04-10T14:34:35.671Z,0.30
2023-04-10T14:37:04.022Z,0.30
2023-04-10T14:39:32.928Z,0.30
2023-04-10T14:42:05.267Z,0.30
2023-04-10T14:44:33.800Z,0.30
2023-04-10T14:47:06.112Z,0.30
2023-04-10T14:49:34.094Z,0.30
2023-04-10T14:52:02.592Z,0.30
2023-04-10T14:54:30.611Z,0.30
2023-04-10T14:56:59.150Z,0.30
2023-04-10T14:59:28.597Z,0.30
2023-04-10T15:01:56.901Z,0.30
2023-04-10T15:04:25.072Z,0.30
2023-04-10T15:06:53.029Z,0.30
2023-04-10T15:09:22.021Z,0.30
2023-04-10T15:11:50.473Z,0.30
2023-04-10T15:14:18.430Z,0.30
2023-04-10T15:16:48.447Z,0.30
2023-04-10T15:19:16.432Z,0.22
2023-04-10T15:21:44.400Z,0.22
2023-04-10T15:24:12.360Z,0.40
2023-04-10T15:26:45.163Z,0.30
2023-04-10T15:29:13.117Z,0.30
2023-04-10T15:31:41.323Z,0.30
2023-04-10T15:34:11.278Z,0.30
2023-04-10T15:36:39.256Z,0.30
2023-04-10T15:39:09.541Z,0.30
2023-04-10T15:41:37.848Z,0.30
2023-04-10T15:44:06.145Z,0.30
2023-04-10T15:46:34.517Z,0.20
2023-04-10T15:49:06.550Z,0.30
2023-04-10T15:51:36.423Z,0.30
2023-04-10T15:54:05.508Z,0.30
2023-04-10T15:56:34.291Z,0.30
2023-04-10T15:59:05.002Z,0.30
2023-04-10T16:01:33.045Z,0.20
2023-04-10T16:04:04.367Z,0.25
2023-04-10T16:06:33.460Z,0.30
2023-04-10T16:09:12.363Z,0.20
2023-04-10T16:11:51.357Z,0.20
2023-04-10T16:14:19.990Z,0.30
2023-04-10T16:16:47.922Z,0.30
2023-04-10T16:19:15.846Z,0.30
2023-04-10T16:21:43.973Z,0.30
2023-04-10T16:24:13.400Z,0.30
2023-04-10T16:26:41.503Z,0.30
2023-04-10T16:29:09.582Z,0.20
2023-04-10T16:31:39.896Z,0.20
2023-04-10T16:34:08.481Z,0.30
2023-04-10T16:36:36.557Z,0.30
2023-04-10T16:39:04.826Z,0.30
2023-04-10T16:41:36.259Z,0.20
2023-04-10T16:44:04.522Z,0.30
2023-04-10T16:46:36.461Z,0.30
2023-04-10T16:49:05.410Z,0.20
2023-04-10T16:51:33.516Z,0.30
2023-04-10T16:54:03.800Z,0.30
2023-04-10T16:56:34.052Z,0.30
2023-04-10T16:59:02.547Z,0.20
2023-04-10T17:01:31.573Z,0.30
2023-04-10T17:03:59.707Z,0.30
2023-04-10T17:06:27.577Z,0.30
2023-04-10T17:08:55.851Z,0.27
2023-04-10T17:11:23.984Z,0.30
2023-04-10T17:13:53.289Z,0.30
2023-04-10T17:16:21.277Z,0.30
2023-04-10T17:18:49.658Z,0.30
2023-04-10T17:21:17.654Z,0.30
2023-04-10T17:23:45.553Z,0.30
2023-04-10T17:26:15.174Z,0.30
2023-04-10T17:28:45.218Z,0.40
2023-04-10T17:31:15.321Z,0.30
2023-04-10T17:33:43.550Z,0.30
2023-04-10T17:36:12.879Z,0.20
2023-04-10T17:38:41.622Z,0.20
2023-04-10T17:41:11.024Z,0.30
2023-04-10T17:43:38.914Z,0.30
2023-04-10T17:46:07.564Z,0.30
2023-04-10T17:48:39.096Z,0.30
2023-04-10T17:51:07.605Z,0.20
2023-04-10T17:53:35.928Z,0.20
2023-04-10T17:56:03.972Z,0.20
2023-04-10T17:58:32.268Z,0.20
2023-04-10T18:01:01.074Z,0.30
2023-04-10T18:03:29.117Z,0.30
2023-04-10T18:05:59.169Z,0.30
2023-04-10T18:08:27.589Z,0.20
2023-04-10T18:10:55.575Z,0.30
2023-04-10T18:13:23.969Z,0.20
2023-04-10T18:15:51.924Z,0.40
2023-04-10T18:18:19.819Z,0.30
2023-04-10T18:20:47.872Z,0.20
2023-04-10T18:23:17.656Z,0.23
2023-04-10T18:25:57.117Z,0.23
2023-04-10T18:28:25.011Z,0.30
2023-04-10T18:30:56.627Z,0.30
2023-04-10T18:33:26.537Z,0.20
2023-04-10T18:35:57.392Z,0.30
2023-04-10T18:38:27.114Z,0.23
2023-04-10T18:40:57.125Z,0.30
2023-04-10T18:43:27.402Z,0.30
2023-04-10T18:45:55.867Z,0.30
2023-04-10T18:48:23.910Z,0.30
2023-04-10T18:50:53.688Z,0.20
2023-04-10T18:53:22.304Z,0.30
2023-04-10T18:55:53.136Z,0.20
2023-04-10T18:58:21.991Z,0.30
2023-04-10T19:00:50.012Z,0.30
2023-04-10T19:03:18.104Z,0.23
2023-04-10T19:05:46.035Z,0.30
2023-04-10T19:08:14.630Z,0.30
2023-04-10T19:10:43.372Z,0.30
2023-04-10T19:13:13.295Z,0.30
2023-04-10T19:15:43.011Z,0.30
2023-04-10T19:18:13.073Z,0.20
2023-04-10T19:20:51.170Z,0.20
2023-04-10T19:23:20.768Z,0.30
2023-04-10T19:25:53.344Z,0.30
2023-04-10T19:28:24.106Z,0.20
2023-04-10T19:30:52.017Z,0.30
2023-04-10T19:33:20.833Z,0.20
2023-04-10T19:35:48.713Z,0.30
2023-04-10T19:38:17.260Z,0.30
2023-04-10T19:40:45.589Z,0.30
2023-04-10T19:43:16.364Z,0.20
2023-04-10T19:45:47.946Z,0.27
2023-04-10T19:48:17.206Z,0.20
2023-04-10T19:50:45.236Z,0.30
2023-04-10T19:53:15.755Z,0.20
2023-04-10T19:55:45.507Z,0.27
2023-04-10T19:58:35.649Z,0.30
2023-04-10T20:01:09.789Z,0.30
2023-04-10T20:03:38.570Z,0.30
2023-04-10T20:06:08.585Z,0.27
2023-04-10T20:08:37.344Z,0.30
2023-04-10T20:11:06.412Z,0.20
2023-04-10T20:13:35.190Z,0.30
2023-04-10T20:16:08.729Z,0.20
2023-04-10T20:18:37.740Z,0.30
2023-04-10T20:21:07.950Z,0.20
2023-04-10T20:23:35.966Z,0.30
2023-04-10T20:26:04.066Z,0.30
2023-04-10T20:28:32.555Z,0.20
2023-04-10T20:31:01.489Z,0.30
2023-04-10T20:33:31.119Z,0.20
2023-04-10T20:35:59.169Z,0.30
2023-04-10T20:38:27.356Z,0.23
2023-04-10T20:40:55.881Z,0.20
2023-04-10T20:43:23.861Z,0.30
2023-04-10T20:45:51.852Z,0.30
2023-04-10T20:48:19.903Z,0.20
2023-04-10T20:50:49.731Z,0.30
2023-04-10T20:53:17.658Z,0.20
2023-04-10T20:55:45.898Z,0.30
2023-04-10T20:58:13.870Z,0.30
2023-04-10T21:00:41.841Z,0.30
2023-04-10T21:03:10.266Z,0.30
2023-04-10T21:05:41.416Z,0.30
2023-04-10T21:08:11.390Z,0.30
2023-04-10T21:10:44.135Z,0.20
2023-04-10T21:13:14.005Z,0.30
2023-04-10T21:15:42.254Z,0.30
2023-04-10T21:18:11.037Z,0.30
2023-04-10T21:20:39.155Z,0.30
2023-04-10T21:23:07.220Z,0.23
2023-04-10T21:25:37.656Z,0.20
2023-04-10T21:28:05.876Z,0.30
2023-04-10T21:30:34.042Z,0.20
2023-04-10T21:33:02.573Z,0.30
2023-04-10T21:35:30.669Z,0.30
2023-04-10T21:38:04.978Z,0.30
2023-04-10T21:40:34.593Z,0.30
2023-04-10T21:43:04.915Z,0.20
2023-04-10T21:45:34.801Z,0.30
2023-04-10T21:48:04.292Z,0.30
2023-04-10T21:50:32.483Z,0.20
2023-04-10T21:53:00.970Z,0.20
2023-04-10T21:55:33.112Z,0.30
2023-04-10T21:58:01.209Z,0.20
2023-04-10T22:00:31.199Z,0.23
2023-04-10T22:05:29.376Z,0.30
2023-04-10T22:07:58.681Z,0.27
2023-04-10T22:10:27.366Z,0.30
2023-04-10T22:12:55.401Z,0.27
2023-04-10T22:15:23.554Z,0.30
2023-04-10T22:17:53.077Z,0.20
2023-04-10T22:20:21.018Z,0.20
2023-04-10T22:22:49.341Z,0.20
2023-04-10T22:25:17.735Z,0.20
2023-04-10T22:27:45.811Z,0.30
2023-04-10T22:30:14.508Z,0.23
2023-04-10T22:32:42.959Z,0.30
2023-04-10T22:35:12.364Z,0.20
2023-04-10T22:37:40.974Z,0.20
2023-04-10T22:40:10.493Z,0.30
2023-04-10T22:42:38.530Z,0.30
2023-04-10T22:45:07.567Z,0.20
2023-04-10T22:47:35.695Z,0.20
2023-04-10T22:50:03.997Z,0.30
2023-04-10T22:52:33.422Z,0.20
2023-04-10T22:55:01.497Z,0.20
2023-04-10T22:57:29.658Z,0.30
2023-04-10T23:00:00.036Z,0.20
2023-04-10T23:02:29.031Z,0.20
2023-04-10T23:04:57.731Z,0.20
2023-04-10T23:07:25.953Z,0.20
2023-04-10T23:09:55.504Z,0.20
2023-04-10T23:12:23.539Z,0.20
2023-04-10T23:14:51.582Z,0.20
2023-04-10T23:17:20.903Z,0.20
2023-04-10T23:19:48.927Z,0.20
2023-04-10T23:22:16.895Z,0.30
2023-04-10T23:24:45.884Z,0.20
2023-04-10T23:27:15.335Z,0.20
2023-04-10T23:29:43.490Z,0.20
2023-04-10T23:32:11.549Z,0.30
2023-04-10T23:34:40.332Z,0.30
2023-04-10T23:37:08.682Z,0.20
2023-04-10T23:39:37.417Z,0.20
2023-04-10T23:42:06.056Z,0.20
2023-04-10T23:44:36.026Z,0.30
2023-04-10T23:47:04.144Z,0.20
2023-04-10T23:49:34.220Z,0.20
2023-04-10T23:52:02.209Z,0.30
2023-04-10T23:54:30.898Z,0.20
2023-04-10T23:56:59.063Z,0.30
2023-04-10T23:59:27.267Z,0.30
